Time;durP1;ratioP1;P1;durP2;ratioP2;P2;SDS_P1;SDS_P2;PMS_P1;PMS_P2;Temp;Humidity;BMP_temperature;BMP_pressure;BME280_temperature;BME280_humidity;BME280_pressure;Samples;Min_cycle;Max_cycle;Signal;HPM_P1;HPM_P2
2021/10/24 00:00:54;;;;;;;19.00;5.67;;;;;;;9.98;45.22;101504.11;125269;1101;118718;-77
2021/10/24 00:03:22;;;;;;;14.40;5.40;;;;;;;9.99;45.29;101504.20;125174;1102;104171;-78
2021/10/24 00:05:51;;;;;;;18.40;5.40;;;;;;;9.99;45.03;101493.70;125195;1102;104208;-79
2021/10/24 00:08:20;;;;;;;17.10;6.03;;;;;;;9.97;45.20;101497.05;125168;1102;104181;-78
2021/10/24 00:10:49;;;;;;;17.20;6.20;;;;;;;9.94;45.20;101505.68;125207;1102;104155;-80
2021/10/24 00:13:17;;;;;;;22.13;6.23;;;;;;;9.90;45.16;101501.97;125180;1102;104152;-79
2021/10/24 00:15:45;;;;;;;20.73;6.60;;;;;;;9.87;44.65;101508.77;125139;1101;104152;-79
2021/10/24 00:18:14;;;;;;;17.80;6.50;;;;;;;9.84;44.93;101505.98;125109;1102;104579;-78
2021/10/24 00:20:43;;;;;;;20.37;6.17;;;;;;;9.81;45.19;101503.19;125178;1102;104291;-79
2021/10/24 00:23:10;;;;;;;18.60;6.50;;;;;;;9.78;45.32;101509.16;125222;1102;104256;-79
2021/10/24 00:25:39;;;;;;;17.40;6.20;;;;;;;9.74;45.31;101511.52;125029;1102;104270;-79
2021/10/24 00:28:11;;;;;;;21.67;6.97;;;;;;;9.72;44.85;101514.06;125235;1102;104293;-79
2021/10/24 00:30:39;;;;;;;21.97;5.80;;;;;;;9.68;45.52;101512.11;125140;1102;104178;-79
2021/10/24 00:33:07;;;;;;;17.93;6.40;;;;;;;9.66;44.94;101512.02;125191;1102;104175;-79
2021/10/24 00:35:35;;;;;;;17.57;5.97;;;;;;;9.64;45.23;101513.63;125255;1102;104162;-79
2021/10/24 00:38:04;;;;;;;20.30;6.47;;;;;;;9.64;45.21;101520.60;125182;1102;104190;-78
2021/10/24 00:40:32;;;;;;;16.83;6.17;;;;;;;9.60;45.07;101519.55;125072;1102;104387;-79
2021/10/24 00:43:01;;;;;;;17.63;5.70;;;;;;;9.55;45.73;101520.98;125011;1102;104216;-78
2021/10/24 00:45:30;;;;;;;18.67;6.40;;;;;;;9.52;45.81;101516.49;125153;1102;105474;-79
2021/10/24 00:47:57;;;;;;;17.57;5.90;;;;;;;9.50;45.01;101522.45;125173;1102;104200;-79
2021/10/24 00:50:27;;;;;;;18.27;6.17;;;;;;;9.50;45.21;101525.06;125127;1102;104168;-78
2021/10/24 00:52:57;;;;;;;19.67;5.67;;;;;;;9.48;45.23;101524.98;125153;1102;104171;-79
2021/10/24 00:55:26;;;;;;;20.70;6.47;;;;;;;9.47;45.59;101524.89;125149;1102;104178;-80
2021/10/24 00:57:55;;;;;;;19.07;5.87;;;;;;;9.46;45.37;101525.73;125143;1102;104181;-79
2021/10/24 01:00:24;;;;;;;17.70;6.27;;;;;;;9.44;45.85;101530.88;125139;1102;104194;-78
2021/10/24 01:02:53;;;;;;;16.73;6.17;;;;;;;9.43;45.97;101536.03;125038;1102;104188;-80
2021/10/24 01:05:21;;;;;;;18.83;5.57;;;;;;;9.43;45.47;101541.28;125188;1102;104208;-78
2021/10/24 01:07:50;;;;;;;20.73;6.60;;;;;;;9.41;46.35;101537.64;125273;1102;104182;-78
2021/10/24 01:10:19;;;;;;;18.17;6.13;;;;;;;9.38;45.64;101542.70;125096;1102;104281;-79
2021/10/24 01:12:49;;;;;;;18.33;6.30;;;;;;;9.35;45.68;101549.59;125170;1102;104236;-78
2021/10/24 01:15:19;;;;;;;18.63;6.00;;;;;;;9.31;46.25;101542.36;125169;1102;104207;-78
2021/10/24 01:17:49;;;;;;;19.23;6.40;;;;;;;9.29;46.02;101550.96;125090;1102;104242;-79
2021/10/24 01:20:20;;;;;;;22.47;6.23;;;;;;;9.27;45.94;101552.56;125116;1102;104329;-79
2021/10/24 01:22:51;;;;;;;18.13;5.73;;;;;;;9.25;46.30;101554.20;125210;1102;104190;-80
2021/10/24 01:25:21;;;;;;;15.07;5.60;;;;;;;9.23;46.00;101554.12;125241;1102;104291;-79
2021/10/24 01:27:51;;;;;;;19.87;6.37;;;;;;;9.23;46.76;101556.73;125153;1102;104322;-79
2021/10/24 01:30:20;;;;;;;18.57;5.70;;;;;;;9.23;46.60;101563.70;125175;1102;104181;-81
2021/10/24 01:32:50;;;;;;;19.30;6.10;;;;;;;9.20;46.74;101568.76;125069;1102;104162;-79
2021/10/24 01:35:21;;;;;;;15.53;5.50;;;;;;;9.17;46.79;101562.51;125097;1102;104169;-79
2021/10/24 01:37:49;;;;;;;19.20;6.40;;;;;;;9.17;46.40;101556.38;125176;1102;104300;-79
2021/10/24 01:40:19;;;;;;;18.47;6.00;;;;;;;9.16;46.54;101562.42;125035;1102;104296;-78
2021/10/24 01:42:50;;;;;;;17.70;5.80;;;;;;;9.13;46.43;101564.86;125151;1102;104158;-80
2021/10/24 01:45:22;;;;;;;17.97;5.60;;;;;;;9.11;46.75;101562.15;125235;1102;104181;-79
2021/10/24 01:47:52;;;;;;;18.57;6.03;;;;;;;9.08;46.54;101564.59;125166;1102;104184;-79
2021/10/24 01:50:22;;;;;;;15.00;5.65;;;;;;;9.05;46.86;101559.17;125219;1102;104345;-79
2021/10/24 01:52:50;;;;;;;15.33;5.70;;;;;;;9.04;47.09;101566.94;125169;1102;104235;-79
2021/10/24 01:55:21;;;;;;;17.60;6.30;;;;;;;8.98;46.97;101563.16;124949;1105;104171;-78
2021/10/24 01:57:52;;;;;;;17.33;6.37;;;;;;;8.97;47.49;101570.91;125008;1105;104602;-80
2021/10/24 02:00:22;;;;;;;16.33;5.90;;;;;;;8.93;47.17;101569.84;124978;1106;104650;-79
2021/10/24 02:02:54;;;;;;;16.27;5.50;;;;;;;8.92;46.83;101567.12;124990;1106;104188;-79
2021/10/24 02:05:34;;;;;;;16.23;5.57;;;;;;;8.89;47.33;101562.60;125000;1105;104159;-78
2021/10/24 02:08:03;;;;;;;18.73;5.80;;;;;;;8.89;47.56;101565.22;124975;1105;104319;-79
2021/10/24 02:10:32;;;;;;;15.87;5.50;;;;;;;8.88;47.67;101566.05;124993;1105;104335;-79
2021/10/24 02:13:04;;;;;;;17.47;6.00;;;;;;;8.86;47.10;101559.80;124958;1106;104342;-78
2021/10/24 02:15:43;;;;;;;18.15;5.95;;;;;;;8.86;47.70;101569.37;125205;1102;104290;-78
2021/10/24 02:18:15;;;;;;;17.40;5.77;;;;;;;8.85;47.42;101571.11;125183;1102;104158;-78
2021/10/24 02:20:47;;;;;;;17.73;5.73;;;;;;;8.86;47.70;101572.00;125150;1102;104169;-79
2021/10/24 02:23:23;;;;;;;15.90;5.53;;;;;;;8.85;47.75;101568.48;125182;1102;104239;-79
2021/10/24 02:25:57;;;;;;;18.83;6.20;;;;;;;8.84;47.70;101569.29;125207;1102;104162;-79
2021/10/24 02:28:25;;;;;;;17.67;5.60;;;;;;;8.82;47.39;101573.54;125252;1102;104298;-78
2021/10/24 02:30:55;;;;;;;15.57;5.43;;;;;;;8.79;47.50;101579.48;125209;1102;104338;-78
2021/10/24 02:33:36;;;;;;;14.93;5.60;;;;;;;8.81;47.65;101571.72;125169;1102;104229;-78
2021/10/24 02:36:22;;;;;;;18.07;5.70;;;;;;;8.77;47.56;101573.27;125232;1101;104232;-79
2021/10/24 02:39:04;;;;;;;16.00;5.10;;;;;;;8.75;47.58;101584.44;125140;1102;104226;-78
2021/10/24 02:41:36;;;;;;;17.67;5.67;;;;;;;8.70;47.42;101584.16;125150;1102;104181;-79
2021/10/24 02:44:10;;;;;;;17.87;6.07;;;;;;;8.66;47.70;101595.23;125226;1102;104157;-79
2021/10/24 02:46:57;;;;;;;14.97;4.97;;;;;;;8.61;48.04;101602.80;125216;1102;104158;-79
2021/10/24 02:49:26;;;;;;;17.97;5.87;;;;;;;8.56;47.71;101596.40;125151;1102;104274;-79
2021/10/24 02:51:55;;;;;;;19.03;5.50;;;;;;;8.53;47.71;101600.55;125125;1102;104201;-79
2021/10/24 02:54:25;;;;;;;17.33;5.50;;;;;;;8.48;47.81;101605.50;125156;1102;104153;-79
2021/10/24 02:56:54;;;;;;;18.60;6.10;;;;;;;8.43;48.39;101606.86;125133;1102;104146;-79
2021/10/24 02:59:22;;;;;;;21.63;6.40;;;;;;;8.38;47.76;101608.30;125185;1102;102360;-79
2021/10/24 03:01:50;;;;;;;20.63;5.73;;;;;;;8.31;48.40;101606.14;125153;1102;104152;-79
2021/10/24 03:04:19;;;;;;;17.63;5.70;;;;;;;8.23;48.64;101614.39;125154;1102;105647;-79
2021/10/24 03:06:49;;;;;;;16.73;5.20;;;;;;;8.17;49.06;101611.39;125273;1102;104162;-78
2021/10/24 03:09:17;;;;;;;18.53;6.10;;;;;;;8.10;48.73;101611.80;125200;1103;104284;-80
2021/10/24 03:11:46;;;;;;;14.70;5.13;;;;;;;8.07;48.59;101616.83;125244;1101;104287;-79
2021/10/24 03:14:16;;;;;;;15.43;5.60;;;;;;;8.05;48.98;101619.34;125167;1102;103110;-79
2021/10/24 03:16:44;;;;;;;20.25;5.30;;;;;;;8.01;49.00;101616.44;125161;1102;104156;-78
2021/10/24 03:19:14;;;;;;;17.60;5.03;;;;;;;7.99;49.27;101618.06;125227;1102;104203;-79
2021/10/24 03:21:46;;;;;;;17.47;6.43;;;;;;;7.97;49.20;101624.91;125189;1102;104579;-78
2021/10/24 03:24:16;;;;;;;18.20;5.53;;;;;;;7.91;50.02;101630.63;125141;1102;104290;-79
2021/10/24 03:26:45;;;;;;;18.40;6.10;;;;;;;7.87;49.62;101633.87;125236;1102;104213;-78
2021/10/24 03:29:13;;;;;;;14.93;5.20;;;;;;;7.81;49.67;101639.59;125269;1102;104736;-79
2021/10/24 03:31:41;;;;;;;17.80;5.50;;;;;;;7.75;50.12;101644.42;125302;1102;104287;-79
2021/10/24 03:34:09;;;;;;;15.23;5.73;;;;;;;7.72;50.44;101652.06;125199;1102;104394;-79
2021/10/24 03:36:37;;;;;;;16.93;6.60;;;;;;;7.67;50.94;101653.47;125146;1102;104162;-78
2021/10/24 03:39:06;;;;;;;21.10;5.90;;;;;;;7.60;51.37;101652.14;125157;1102;104201;-79
2021/10/24 03:41:34;;;;;;;23.07;5.77;;;;;;;7.53;51.48;101653.45;125121;1102;104313;-79
2021/10/24 03:44:02;;;;;;;17.03;5.93;;;;;;;7.46;51.27;101658.16;125160;1102;104165;-79
2021/10/24 03:46:31;;;;;;;20.67;6.13;;;;;;;7.38;51.37;101660.27;125162;1102;104185;-78
2021/10/24 03:49:00;;;;;;;16.13;5.93;;;;;;;7.35;51.72;101662.66;125208;1102;104156;-79
2021/10/24 03:51:29;;;;;;;14.60;5.63;;;;;;;7.31;51.72;101663.28;125159;1102;104160;-79
2021/10/24 03:53:57;;;;;;;16.40;6.10;;;;;;;7.28;51.87;101663.08;125217;1102;104188;-79
2021/10/24 03:56:25;;;;;;;13.70;6.10;;;;;;;7.25;52.14;101665.48;125106;1102;104185;-79
2021/10/24 03:58:53;;;;;;;19.10;6.20;;;;;;;7.20;52.20;101666.06;125240;1102;104691;-79
2021/10/24 04:01:21;;;;;;;18.67;6.27;;;;;;;7.19;52.03;101660.73;125194;1102;104319;-79
2021/10/24 04:03:49;;;;;;;19.10;6.20;;;;;;;7.16;51.96;101677.08;125136;1102;104159;-78
2021/10/24 04:06:18;;;;;;;16.50;6.10;;;;;;;7.11;52.25;101675.88;125196;1102;104819;-79
2021/10/24 04:08:46;;;;;;;20.67;6.33;;;;;;;7.09;52.91;101679.17;125213;1102;104230;-78
2021/10/24 04:11:14;;;;;;;18.23;6.13;;;;;;;7.03;52.75;101674.45;125202;1102;104284;-78
2021/10/24 04:13:43;;;;;;;19.50;6.50;;;;;;;6.98;52.68;101675.81;125178;1102;104264;-79
2021/10/24 04:16:13;;;;;;;19.60;6.40;;;;;;;6.93;52.88;101679.83;125196;1102;104204;-78
2021/10/24 04:18:54;;;;;;;18.60;6.40;;;;;;;6.87;53.02;101685.51;125095;1102;104185;-78
2021/10/24 04:21:22;;;;;;;17.40;6.33;;;;;;;6.80;53.24;101676.36;125174;1102;104207;-78
2021/10/24 04:23:51;;;;;;;21.63;7.00;;;;;;;6.76;53.51;101678.64;125132;1102;104194;-78
2021/10/24 04:26:19;;;;;;;18.10;6.77;;;;;;;6.72;53.46;101687.97;125199;1102;107049;-78
2021/10/24 04:28:47;;;;;;;20.83;6.43;;;;;;;6.69;53.67;101687.76;125233;1102;104153;-79
2021/10/24 04:31:16;;;;;;;19.77;6.87;;;;;;;6.67;54.37;101694.58;125019;1103;104239;-78
2021/10/24 04:33:44;;;;;;;17.53;6.30;;;;;;;6.64;54.14;101696.97;125258;1102;104160;-79
2021/10/24 04:36:12;;;;;;;17.87;5.80;;;;;;;6.63;54.23;101693.44;125173;1102;104197;-79
2021/10/24 04:38:40;;;;;;;20.33;6.33;;;;;;;6.61;54.20;101689.82;125001;1102;104605;-79
2021/10/24 04:41:08;;;;;;;18.50;6.20;;;;;;;6.59;55.09;101699.25;125205;1102;104345;-79
2021/10/24 04:43:36;;;;;;;16.95;6.15;;;;;;;6.55;55.24;101696.31;125010;1102;104229;-79
2021/10/24 04:46:06;;;;;;;21.40;6.03;;;;;;;6.52;55.85;101699.60;125187;1102;104152;-77
2021/10/24 04:48:36;;;;;;;22.10;6.27;;;;;;;6.48;55.92;101700.17;125228;1102;104173;-78
2021/10/24 04:51:04;;;;;;;20.63;6.17;;;;;;;6.45;56.04;101703.48;125030;1102;104222;-78
2021/10/24 04:53:35;;;;;;;19.27;6.27;;;;;;;6.44;56.00;101703.38;125199;1101;104181;-79
2021/10/24 04:56:07;;;;;;;17.07;6.80;;;;;;;6.42;55.72;101711.08;125210;1102;104156;-78
2021/10/24 04:58:35;;;;;;;16.90;5.70;;;;;;;6.42;56.17;101710.16;125156;1102;104159;-78
2021/10/24 05:01:09;;;;;;;20.57;6.30;;;;;;;6.39;55.85;101716.08;125227;1102;104219;-78
2021/10/24 05:03:38;;;;;;;24.03;6.30;;;;;;;6.39;55.79;101720.36;125179;1102;104364;-78
2021/10/24 05:06:07;;;;;;;17.33;6.10;;;;;;;6.38;55.85;101716.86;125180;1102;104197;-80
2021/10/24 05:08:36;;;;;;;19.23;5.80;;;;;;;6.38;55.90;101721.19;125184;1102;104631;-79
2021/10/24 05:11:03;;;;;;;18.63;6.40;;;;;;;6.38;55.70;101726.39;125223;1102;104162;-79
2021/10/24 05:13:45;;;;;;;19.67;5.77;;;;;;;6.37;56.03;101725.47;125217;1102;104285;-79
2021/10/24 05:16:31;;;;;;;20.55;6.40;;;;;;;6.37;56.10;101728.08;124932;1102;105540;-79
2021/10/24 05:18:59;;;;;;;18.43;5.80;;;;;;;6.38;56.12;101723.79;125197;1102;104155;-78
2021/10/24 05:21:27;;;;;;;17.53;5.93;;;;;;;6.40;56.54;101736.12;125119;1102;104226;-79
2021/10/24 05:23:56;;;;;;;15.40;5.80;;;;;;;6.39;56.23;101736.01;125216;1102;104726;-78
2021/10/24 05:26:26;;;;;;;22.03;6.27;;;;;;;6.42;56.46;101739.77;125172;1102;104189;-80
2021/10/24 05:28:57;;;;;;;17.00;5.87;;;;;;;6.46;56.28;101736.56;125149;1102;104326;-79
2021/10/24 05:31:30;;;;;;;16.90;5.77;;;;;;;6.51;56.93;101739.50;125200;1102;104213;-78
2021/10/24 05:34:07;;;;;;;18.40;6.13;;;;;;;6.53;56.35;101737.00;125240;1102;104278;-80
2021/10/24 05:36:54;;;;;;;15.60;5.80;;;;;;;6.55;56.45;101741.55;125105;1102;104205;-78
2021/10/24 05:39:22;;;;;;;17.50;5.43;;;;;;;6.58;56.76;101751.30;125165;1102;104393;-79
2021/10/24 05:41:50;;;;;;;18.60;5.93;;;;;;;6.61;56.70;101756.73;125133;1102;104235;-79
2021/10/24 05:44:19;;;;;;;19.80;6.83;;;;;;;6.65;57.04;101756.14;125222;1101;104290;-78
2021/10/24 05:46:54;;;;;;;17.43;5.40;;;;;;;6.66;57.11;101752.75;125109;1102;104159;-78
2021/10/24 05:49:38;;;;;;;18.17;5.97;;;;;;;6.70;56.97;101760.01;125265;1102;102213;-78
2021/10/24 05:52:25;;;;;;;13.13;5.53;;;;;;;6.75;57.28;101765.55;124992;1102;104187;-78
2021/10/24 05:54:54;;;;;;;16.50;5.30;;;;;;;6.78;57.62;101777.10;124942;1102;104425;-79
2021/10/24 05:57:29;;;;;;;17.27;5.73;;;;;;;6.81;57.90;101776.43;124941;1103;104217;-78
2021/10/24 06:00:17;;;;;;;19.87;6.27;;;;;;;6.83;58.19;101785.26;124983;1102;104172;-79
2021/10/24 06:03:04;;;;;;;17.10;5.80;;;;;;;6.81;57.84;101785.15;125008;1102;104198;-78
2021/10/24 06:05:56;;;;;;;14.23;6.00;;;;;;;6.83;57.87;101775.72;124973;1102;104316;-79
2021/10/24 06:08:28;;;;;;;20.53;6.10;;;;;;;6.87;58.58;101786.37;124943;1102;108336;-78
2021/10/24 06:11:12;;;;;;;17.07;5.30;;;;;;;6.89;58.23;101787.38;124982;1105;104317;-78
2021/10/24 06:13:42;;;;;;;17.30;5.80;;;;;;;6.94;58.31;101799.08;124997;1105;104331;-78
2021/10/24 06:16:11;;;;;;;18.53;5.80;;;;;;;6.97;57.85;101801.91;124996;1102;104312;-78
2021/10/24 06:18:39;;;;;;;16.17;5.83;;;;;;;7.08;57.92;101802.66;124973;1105;104204;-79
2021/10/24 06:21:09;;;;;;;16.40;5.57;;;;;;;7.14;57.81;101797.88;124966;1106;104169;-78
2021/10/24 06:23:37;;;;;;;16.87;6.63;;;;;;;7.24;58.06;101804.64;125098;1102;104411;-78
2021/10/24 06:26:06;;;;;;;16.30;5.63;;;;;;;7.31;58.22;101809.50;125227;1102;104153;-78
2021/10/24 06:28:35;;;;;;;18.97;6.30;;;;;;;7.34;57.62;101804.49;125215;1102;104274;-79
2021/10/24 06:31:08;;;;;;;16.73;5.43;;;;;;;7.46;58.48;101805.31;125185;1102;104211;-79
2021/10/24 06:33:57;;;;;;;19.80;6.47;;;;;;;7.49;58.03;101805.52;125205;1102;104268;-78
2021/10/24 06:36:44;;;;;;;18.70;6.37;;;;;;;7.56;58.07;101820.83;125197;1102;104221;-78
2021/10/24 06:39:24;;;;;;;19.47;6.07;;;;;;;7.63;57.83;101811.70;125138;1101;104214;-78
2021/10/24 06:41:53;;;;;;;20.13;6.27;;;;;;;7.69;57.99;101799.06;125205;1102;104287;-79
2021/10/24 06:44:30;;;;;;;16.60;5.90;;;;;;;7.82;57.78;101807.73;125172;1102;104210;-79
2021/10/24 06:47:14;;;;;;;16.17;5.55;;;;;;;7.99;57.34;101809.77;125127;1102;104168;-79
2021/10/24 06:49:59;;;;;;;19.13;6.10;;;;;;;8.05;57.60;101811.89;125151;1102;104226;-80
2021/10/24 06:52:44;;;;;;;19.10;6.53;;;;;;;8.10;57.56;101816.64;125188;1102;104149;-79
2021/10/24 06:55:29;;;;;;;17.83;6.20;;;;;;;8.16;57.73;101813.51;125289;1102;104233;-79
2021/10/24 06:58:17;;;;;;;21.50;6.80;;;;;;;8.26;57.76;101817.66;125062;1102;104165;-78
2021/10/24 07:01:04;;;;;;;19.10;5.95;;;;;;;8.31;57.50;101820.58;125241;1102;104159;-78
2021/10/24 07:03:45;;;;;;;13.70;5.70;;;;;;;8.27;57.28;101812.53;125169;1102;104185;-78
2021/10/24 07:06:24;;;;;;;16.73;5.90;;;;;;;8.20;57.19;101812.02;125141;1102;104213;-78
2021/10/24 07:09:04;;;;;;;23.00;6.53;;;;;;;8.16;57.55;101826.58;125169;1102;104172;-79
2021/10/24 07:11:35;;;;;;;15.73;5.60;;;;;;;8.14;57.44;101833.42;125114;1102;104399;-79
2021/10/24 07:14:03;;;;;;;18.90;6.13;;;;;;;8.17;58.14;101832.73;125209;1102;104181;-79
2021/10/24 07:16:31;;;;;;;18.80;6.20;;;;;;;8.19;57.84;101821.55;125172;1101;104160;-78
2021/10/24 07:18:59;;;;;;;19.53;6.20;;;;;;;8.27;57.86;101829.91;125174;1102;104252;-78
2021/10/24 07:21:27;;;;;;;20.90;6.37;;;;;;;8.35;57.56;101826.11;125193;1102;104159;-78
2021/10/24 07:23:55;;;;;;;19.17;6.50;;;;;;;8.43;57.32;101823.97;125214;1102;104238;-79
2021/10/24 07:26:26;;;;;;;16.00;5.73;;;;;;;8.54;57.66;101830.87;125201;1102;104290;-79
2021/10/24 07:28:54;;;;;;;19.53;6.70;;;;;;;8.58;57.81;101842.43;125201;1102;104236;-79
2021/10/24 07:31:24;;;;;;;20.27;7.10;;;;;;;8.67;57.69;101836.91;125200;1102;104229;-78
2021/10/24 07:34:12;;;;;;;21.20;6.77;;;;;;;8.84;57.45;101846.73;125182;1102;104188;-77
2021/10/24 07:36:46;;;;;;;19.37;6.70;;;;;;;8.99;57.31;101841.55;125184;1102;104163;-79
2021/10/24 07:39:14;;;;;;;18.47;6.47;;;;;;;9.15;57.28;101833.87;125111;1102;104161;-78
2021/10/24 07:41:43;;;;;;;18.70;6.80;;;;;;;9.28;56.70;101835.53;125212;1102;104201;-79
2021/10/24 07:44:14;;;;;;;20.40;7.13;;;;;;;9.37;56.53;101829.08;125204;1102;104592;-80
2021/10/24 07:46:44;;;;;;;20.83;7.00;;;;;;;9.42;56.84;101830.26;125186;1102;104216;-78
2021/10/24 07:49:14;;;;;;;18.33;6.53;;;;;;;9.51;56.71;101829.09;125164;1102;104178;-79
2021/10/24 07:51:44;;;;;;;18.00;7.07;;;;;;;9.61;56.13;101835.80;125165;1102;104159;-78
2021/10/24 07:54:15;;;;;;;17.10;6.27;;;;;;;9.70;56.40;101835.47;125187;1102;104232;-77
2021/10/24 07:56:44;;;;;;;18.27;6.60;;;;;;;9.73;56.02;101855.73;125141;1102;104813;-78
2021/10/24 07:59:31;;;;;;;21.70;6.97;;;;;;;9.71;55.42;101843.42;125128;1102;104152;-78
2021/10/24 08:02:01;;;;;;;18.53;6.53;;;;;;;9.68;55.40;101858.06;125260;1102;104319;-79
2021/10/24 08:04:33;;;;;;;18.40;7.57;;;;;;;9.67;55.26;101856.25;125234;1102;104147;-80
2021/10/24 08:07:03;;;;;;;17.53;6.37;;;;;;;9.63;55.83;101860.41;125145;1103;104217;-78
2021/10/24 08:09:31;;;;;;;17.27;6.43;;;;;;;9.61;55.17;101861.11;125161;1102;104149;-78
2021/10/24 08:12:00;;;;;;;16.83;6.63;;;;;;;9.67;55.11;101853.63;125218;1101;104147;-79
2021/10/24 08:14:31;;;;;;;21.20;6.73;;;;;;;9.79;55.83;101856.99;125152;1102;104207;-79
2021/10/24 08:17:05;;;;;;;18.07;6.87;;;;;;;9.93;54.79;101851.69;125136;1102;104309;-78
2021/10/24 08:19:55;;;;;;;15.40;5.45;;;;;;;10.10;55.40;101848.34;125021;1102;104222;-77
2021/10/24 08:22:23;;;;;;;19.53;6.67;;;;;;;10.20;55.15;101855.92;125242;1102;104280;-80
2021/10/24 08:24:53;;;;;;;21.17;5.60;;;;;;;10.23;54.50;101849.96;125050;1102;104159;-79
2021/10/24 08:27:33;;;;;;;14.97;5.57;;;;;;;10.27;54.16;101862.45;125218;1102;104143;-78
2021/10/24 08:30:21;;;;;;;20.30;6.17;;;;;;;10.43;54.06;101856.41;125108;1102;104201;-78
2021/10/24 08:33:08;;;;;;;15.73;5.23;;;;;;;10.59;52.42;101864.33;125260;1101;104287;-79
2021/10/24 08:35:36;;;;;;;13.47;4.77;;;;;;;10.71;52.15;101858.00;125195;1102;104178;-78
2021/10/24 08:38:04;;;;;;;11.70;4.23;;;;;;;10.82;51.41;101861.23;125115;1102;104168;-79
2021/10/24 08:40:33;;;;;;;12.40;4.50;;;;;;;10.97;51.87;101854.22;125098;1102;104318;-78
2021/10/24 08:43:14;;;;;;;13.10;4.83;;;;;;;10.89;50.83;101855.48;125139;1102;104300;-79
2021/10/24 08:45:43;;;;;;;13.97;5.60;;;;;;;10.84;51.44;101860.48;125133;1102;104159;-79
2021/10/24 08:48:12;;;;;;;14.90;4.80;;;;;;;10.78;50.60;101868.94;125184;1102;104149;-79
2021/10/24 08:50:49;;;;;;;17.30;4.33;;;;;;;10.73;50.16;101866.85;125145;1102;104589;-79
2021/10/24 08:53:20;;;;;;;18.70;4.60;;;;;;;10.61;49.91;101865.34;125202;1102;104241;-79
2021/10/24 08:55:49;;;;;;;15.67;4.67;;;;;;;10.46;49.94;101864.45;125193;1102;104315;-79
2021/10/24 08:58:18;;;;;;;14.37;4.33;;;;;;;10.35;49.90;101866.45;125243;1102;104354;-80
2021/10/24 09:00:48;;;;;;;14.27;5.47;;;;;;;10.24;50.82;101867.52;125128;1102;104207;-79
2021/10/24 09:03:17;;;;;;;13.60;5.50;;;;;;;10.22;51.01;101861.26;125183;1102;104223;-79
2021/10/24 09:05:47;;;;;;;12.07;5.13;;;;;;;10.26;51.03;101860.64;125220;1102;104150;-78
2021/10/24 09:08:17;;;;;;;14.37;5.00;;;;;;;10.32;50.32;101876.73;125215;1102;104150;-78
2021/10/24 09:10:48;;;;;;;14.07;5.40;;;;;;;10.32;50.94;101884.61;125120;1102;104162;-80
2021/10/24 09:13:18;;;;;;;15.60;5.30;;;;;;;10.26;51.10;101874.64;125043;1102;104145;-78
2021/10/24 09:15:52;;;;;;;17.00;5.40;;;;;;;10.21;50.93;101877.84;125183;1102;104205;-80
2021/10/24 09:18:23;;;;;;;13.28;5.05;;;;;;;10.09;50.72;101880.63;125217;1102;104156;-79
2021/10/24 09:20:51;;;;;;;12.47;4.87;;;;;;;9.99;50.98;101876.55;124957;1102;104204;-78
2021/10/24 09:23:20;;;;;;;15.13;5.40;;;;;;;9.97;51.16;101874.64;125241;1102;104159;-79
2021/10/24 09:25:51;;;;;;;16.43;5.30;;;;;;;10.05;50.80;101879.54;125181;1102;104150;-78
2021/10/24 09:28:21;;;;;;;12.57;4.60;;;;;;;10.13;51.09;101885.24;125008;1105;104184;-78
2021/10/24 09:31:00;;;;;;;15.07;5.07;;;;;;;10.19;51.27;101877.74;124941;1102;104223;-79
2021/10/24 09:33:44;;;;;;;12.97;4.83;;;;;;;10.26;50.96;101872.02;124972;1105;104676;-78
2021/10/24 09:36:13;;;;;;;13.17;5.13;;;;;;;10.26;51.02;101874.64;125024;1105;104190;-79
2021/10/24 09:39:09;;;;;;;13.13;4.90;;;;;;;10.23;51.18;101863.97;124976;1105;104172;-77
2021/10/24 09:41:37;;;;;;;13.50;4.87;;;;;;;10.24;51.34;101870.14;124971;1102;104222;-78
2021/10/24 09:44:10;;;;;;;12.97;4.23;;;;;;;10.22;50.90;101884.86;124991;1102;104259;-78
2021/10/24 09:46:47;;;;;;;8.23;3.43;;;;;;;10.15;49.73;101874.84;125010;1102;104306;-78
2021/10/24 09:49:18;;;;;;;10.35;3.45;;;;;;;10.05;50.00;101876.92;125181;1102;105111;-79
2021/10/24 09:51:48;;;;;;;7.87;3.60;;;;;;;10.02;50.07;101881.98;125139;1102;104278;-78
2021/10/24 09:54:21;;;;;;;9.10;3.70;;;;;;;10.04;50.31;101879.45;125213;1102;104150;-78
2021/10/24 09:56:51;;;;;;;11.45;3.95;;;;;;;10.05;49.97;101875.99;125203;1102;104238;-79
2021/10/24 09:59:21;;;;;;;7.43;3.33;;;;;;;10.04;49.57;101885.59;125088;1102;104211;-79
2021/10/24 10:01:51;;;;;;;9.57;3.17;;;;;;;10.05;49.55;101879.54;125010;1104;104255;-79
2021/10/24 10:04:19;;;;;;;11.27;3.57;;;;;;;10.10;49.03;101878.89;124979;1102;104335;-79
2021/10/24 10:06:50;;;;;;;9.63;3.30;;;;;;;10.10;48.62;101881.52;124994;1102;104433;-79
2021/10/24 10:09:18;;;;;;;12.10;3.60;;;;;;;10.07;48.71;101883.15;124989;1102;104548;-79
2021/10/24 10:11:52;;;;;;;8.57;3.33;;;;;;;10.17;48.26;101881.97;124929;1102;104156;-79
2021/10/24 10:14:26;;;;;;;12.70;3.20;;;;;;;10.33;48.40;101873.34;125021;1105;104344;-78
2021/10/24 10:17:00;;;;;;;5.90;2.85;;;;;;;10.52;48.05;101884.92;125005;1105;104299;-78
2021/10/24 10:19:31;;;;;;;6.90;2.93;;;;;;;10.84;47.54;101867.46;125003;1106;104642;-79
2021/10/24 10:22:24;;;;;;;5.67;2.80;;;;;;;11.08;46.82;101868.84;124959;1103;104687;-78
2021/10/24 10:24:56;;;;;;;6.80;2.40;;;;;;;11.20;47.50;101873.84;125006;1105;104485;-78
2021/10/24 10:27:39;;;;;;;5.40;2.33;;;;;;;11.26;47.51;101862.78;124978;1102;104347;-80
2021/10/24 10:30:10;;;;;;;6.15;2.75;;;;;;;11.32;46.91;101863.12;125012;1102;104319;-78
2021/10/24 10:32:40;;;;;;;6.60;2.70;;;;;;;11.38;46.75;101868.70;124971;1102;104203;-78
2021/10/24 10:35:11;;;;;;;6.00;2.77;;;;;;;11.32;45.65;101868.38;125130;1102;104284;-79
2021/10/24 10:37:52;;;;;;;8.50;3.07;;;;;;;11.28;45.67;101861.13;125127;1102;104144;-79
2021/10/24 10:40:23;;;;;;;3.87;2.30;;;;;;;11.25;45.67;101863.59;125197;1102;104146;-79
2021/10/24 10:42:56;;;;;;;4.63;2.73;;;;;;;11.25;45.73;101871.47;125165;1102;104232;-80
2021/10/24 10:45:43;;;;;;;8.07;2.50;;;;;;;11.24;45.33;101878.47;125197;1102;104281;-80
2021/10/24 10:48:31;;;;;;;5.20;2.23;;;;;;;11.29;45.54;101871.73;125152;1102;104236;-78
2021/10/24 10:51:13;;;;;;;4.73;2.43;;;;;;;11.37;45.10;101873.87;125188;1102;104149;-79
2021/10/24 10:53:55;;;;;;;6.53;2.40;;;;;;;11.51;43.98;101868.56;125147;1101;104345;-78
2021/10/24 10:56:29;;;;;;;9.13;2.40;;;;;;;11.69;43.22;101860.73;125202;1102;104155;-80
2021/10/24 10:58:59;;;;;;;4.67;1.90;;;;;;;11.78;43.25;101849.81;125121;1101;104185;-80
2021/10/24 11:01:34;;;;;;;5.60;2.40;;;;;;;11.77;42.75;101874.28;125263;1102;104155;-80
2021/10/24 11:04:16;;;;;;;4.43;2.47;;;;;;;11.70;42.48;101866.88;125243;1102;104179;-80
2021/10/24 11:06:59;;;;;;;6.40;2.57;;;;;;;11.64;42.73;101866.55;125189;1102;104220;-80
2021/10/24 11:09:49;;;;;;;3.75;2.40;;;;;;;11.60;42.77;101869.86;124984;1102;104146;-80
2021/10/24 11:12:31;;;;;;;6.60;2.47;;;;;;;11.61;42.60;101863.77;125185;1102;105569;-78
2021/10/24 11:15:18;;;;;;;7.87;2.60;;;;;;;11.59;42.68;101875.94;125176;1102;104349;-80
2021/10/24 11:17:49;;;;;;;5.00;2.27;;;;;;;11.50;42.80;101877.26;125177;1102;104454;-78
2021/10/24 11:20:20;;;;;;;8.50;2.93;;;;;;;11.46;42.98;101883.16;125217;1102;104261;-78
2021/10/24 11:22:56;;;;;;;5.80;2.57;;;;;;;11.42;42.80;101878.58;125166;1102;104159;-78
2021/10/24 11:25:30;;;;;;;4.67;2.47;;;;;;;11.38;43.39;101873.97;125252;1102;104229;-79
2021/10/24 11:28:04;;;;;;;6.67;2.60;;;;;;;11.39;43.38;101881.04;125182;1102;104309;-79
2021/10/24 11:30:35;;;;;;;5.60;2.73;;;;;;;11.40;43.35;101880.20;125129;1102;104334;-80
2021/10/24 11:33:04;;;;;;;6.67;2.90;;;;;;;11.42;43.66;101875.95;125183;1102;104150;-80